createdAt,value
2023-06-27T14:20:39.590Z,27.46
2023-06-27T14:23:24.929Z,27.52
2023-06-27T14:26:10.090Z,27.54
2023-06-27T14:28:55.640Z,27.54
2023-06-27T17:46:06.379Z,27.59
2023-06-27T17:48:51.489Z,27.59
2023-06-27T17:51:36.895Z,27.55
2023-06-27T17:54:22.457Z,27.46
2023-06-27T17:57:07.793Z,27.45
2023-06-27T17:59:53.061Z,27.46
2023-06-27T18:02:38.733Z,27.31
2023-06-27T18:05:23.782Z,27.43
2023-06-27T18:08:09.185Z,27.39
2023-06-27T18:10:54.500Z,27.38
2023-06-27T18:13:39.611Z,27.40
2023-06-27T18:16:25.097Z,27.27
2023-06-27T18:19:10.603Z,27.32
2023-06-27T18:21:56.025Z,27.26
2023-06-27T18:24:41.312Z,27.26
2023-06-27T18:27:26.725Z,27.00
2023-06-27T18:30:11.987Z,27.06
2023-06-27T18:32:57.379Z,27.07
2023-06-27T18:35:42.862Z,27.00
2023-06-27T18:38:28.381Z,27.08
2023-06-27T18:41:13.836Z,27.22
2023-06-27T18:43:59.182Z,26.88
2023-06-27T18:46:44.679Z,26.83
2023-06-27T18:49:30.079Z,27.16
2023-06-27T18:52:15.473Z,27.00
2023-06-27T18:55:00.874Z,27.17
2023-06-27T18:57:46.302Z,27.20
2023-06-27T19:00:31.762Z,27.23
2023-06-27T19:03:19.491Z,27.14
2023-06-27T19:06:05.661Z,27.27
2023-06-27T19:08:51.269Z,27.27
2023-06-27T19:11:36.578Z,27.22
2023-06-27T19:14:21.962Z,27.29
2023-06-27T19:17:07.290Z,27.28
2023-06-27T19:19:53.115Z,27.27
2023-06-27T19:22:39.024Z,27.32
2023-06-27T19:25:24.354Z,27.02
2023-06-27T19:28:09.774Z,27.14
2023-06-27T19:30:55.130Z,27.10
2023-06-27T19:33:40.447Z,27.04
2023-06-27T19:36:25.542Z,27.09
2023-06-27T19:39:10.746Z,27.15
2023-06-27T19:41:56.128Z,27.19
2023-06-27T19:44:41.408Z,27.13
2023-06-27T19:47:26.838Z,27.18
2023-06-27T19:50:12.393Z,27.32
2023-06-27T19:52:57.829Z,27.29
2023-06-27T19:55:42.932Z,27.43
2023-06-27T19:58:28.128Z,27.36
2023-06-27T20:01:13.390Z,27.32
2023-06-27T20:03:58.534Z,27.29
2023-06-27T20:06:43.965Z,27.47
2023-06-27T20:09:29.378Z,27.36
2023-06-27T20:12:14.958Z,27.40
2023-06-27T20:15:00.284Z,27.26
2023-06-27T20:17:45.820Z,27.19
2023-06-27T20:20:30.812Z,27.03
2023-06-27T20:23:16.290Z,26.90
2023-06-27T20:26:01.401Z,27.19
2023-06-27T20:28:46.862Z,27.22
2023-06-27T20:31:32.239Z,27.36
2023-06-27T20:34:17.553Z,27.22
2023-06-27T20:37:02.970Z,27.31
2023-06-27T20:39:48.485Z,27.28
2023-06-27T20:42:33.750Z,27.16
2023-06-27T20:45:18.989Z,27.13
2023-06-27T20:48:04.164Z,27.18
2023-06-27T20:50:49.397Z,27.16
2023-06-27T20:53:34.771Z,27.15
2023-06-27T20:56:20.221Z,27.09
2023-06-27T20:59:05.461Z,27.13
2023-06-27T21:01:50.922Z,27.14
2023-06-27T21:04:35.843Z,27.15
2023-06-27T21:07:21.124Z,27.34
2023-06-27T21:10:06.440Z,27.13
2023-06-27T21:12:51.668Z,27.24
2023-06-27T21:15:37.095Z,27.15
2023-06-27T21:18:22.512Z,27.22
2023-06-27T21:21:08.001Z,27.09
2023-06-27T21:23:53.255Z,27.19
2023-06-27T21:26:38.711Z,26.95
2023-06-27T21:29:24.103Z,27.05
2023-06-27T21:32:09.499Z,27.12
2023-06-27T21:34:54.885Z,27.15
2023-06-27T21:37:40.143Z,27.01
2023-06-27T21:40:25.472Z,27.10
2023-06-27T21:43:10.830Z,27.20
2023-06-27T21:45:56.197Z,27.18
2023-06-27T21:48:41.558Z,27.14
2023-06-27T21:51:26.737Z,26.93
2023-06-27T21:54:12.332Z,27.08
2023-06-27T21:56:57.715Z,27.03
2023-06-27T21:59:43.175Z,27.12
2023-06-27T22:02:28.715Z,27.07
2023-06-27T22:05:13.945Z,26.99
2023-06-27T22:07:59.389Z,26.89
2023-06-27T22:10:44.679Z,27.06
2023-06-27T22:13:32.893Z,27.19
2023-06-27T22:16:18.126Z,27.14
2023-06-27T22:19:03.241Z,26.95
2023-06-27T22:21:48.626Z,27.05
2023-06-27T22:24:33.985Z,26.92
2023-06-27T22:27:19.293Z,27.08
2023-06-27T22:30:04.669Z,26.97
2023-06-27T22:32:50.037Z,26.99
2023-06-27T22:35:35.368Z,26.99
2023-06-27T22:38:20.589Z,27.15
2023-06-27T22:41:06.233Z,26.97
2023-06-27T22:43:51.435Z,27.03
2023-06-27T22:46:36.734Z,26.93
2023-06-27T22:49:22.265Z,26.93
2023-06-27T22:52:07.463Z,27.00
2023-06-27T22:54:52.892Z,27.01
2023-06-27T22:57:38.270Z,27.04
2023-06-27T23:00:23.838Z,27.01
2023-06-27T23:03:09.363Z,26.89
2023-06-27T23:05:54.344Z,26.92
2023-06-27T23:08:39.918Z,27.05
2023-06-27T23:11:25.178Z,27.05
2023-06-27T23:14:10.502Z,26.83
2023-06-27T23:16:56.113Z,27.09
2023-06-27T23:19:44.507Z,26.93
2023-06-27T23:22:29.957Z,27.01
2023-06-27T23:25:15.113Z,26.95
2023-06-27T23:28:00.479Z,26.96
2023-06-27T23:30:46.096Z,26.89
2023-06-27T23:33:31.416Z,26.96
2023-06-27T23:36:16.676Z,26.80
2023-06-27T23:39:02.191Z,26.89
2023-06-27T23:41:47.324Z,26.93
2023-06-27T23:44:32.587Z,26.87
2023-06-27T23:47:17.919Z,26.91
2023-06-27T23:50:03.320Z,26.99
2023-06-27T23:52:48.613Z,26.85
2023-06-27T23:55:33.914Z,26.82
2023-06-27T23:58:18.940Z,26.91
